createdAt,value
2018-01-23T00:02:18.844Z,14.33
2018-01-23T00:04:47.268Z,14.40
2018-01-23T00:07:15.697Z,15.07
2018-01-23T00:09:44.089Z,14.23
2018-01-23T00:12:12.545Z,13.90
2018-01-23T00:14:40.996Z,15.50
2018-01-23T00:17:09.392Z,13.63
2018-01-23T00:19:37.816Z,13.37
2018-01-23T00:22:06.204Z,13.90
2018-01-23T00:24:34.669Z,13.50
2018-01-23T00:27:03.107Z,14.03
2018-01-23T00:29:31.532Z,13.80
2018-01-23T00:31:59.968Z,14.27
2018-01-23T00:34:28.392Z,14.47
2018-01-23T00:36:56.788Z,13.37
2018-01-23T00:39:25.236Z,14.00
2018-01-23T00:41:53.648Z,13.77
2018-01-23T00:44:22.092Z,14.10
2018-01-23T00:46:50.496Z,14.10
2018-01-23T00:49:18.967Z,12.53
2018-01-23T00:51:47.356Z,13.63
2018-01-23T00:54:15.876Z,14.30
2018-01-23T00:56:44.284Z,14.00
2018-01-23T00:59:12.730Z,13.47
2018-01-23T01:01:41.153Z,15.13
2018-01-23T01:04:09.540Z,14.67
2018-01-23T01:06:38.004Z,13.57
2018-01-23T01:09:06.433Z,15.00
2018-01-23T01:11:34.867Z,15.47
2018-01-23T01:14:03.296Z,14.37
2018-01-23T01:16:31.704Z,15.30
2018-01-23T01:19:00.131Z,14.70
2018-01-23T01:21:28.572Z,15.53
2018-01-23T01:23:57.091Z,14.50
2018-01-23T01:26:25.496Z,14.97
2018-01-23T01:28:53.985Z,15.77
2018-01-23T01:31:22.430Z,15.33
2018-01-23T01:33:50.888Z,15.60
2018-01-23T01:36:19.395Z,15.43
2018-01-23T01:38:47.836Z,15.37
2018-01-23T01:41:16.268Z,15.33
2018-01-23T01:43:44.721Z,14.43
2018-01-23T01:46:13.153Z,15.80
2018-01-23T01:48:53.500Z,14.97
2018-01-23T01:51:21.972Z,15.30
2018-01-23T01:53:50.373Z,13.67
2018-01-23T01:56:18.811Z,14.70
2018-01-23T01:58:47.265Z,15.27
2018-01-23T02:01:15.698Z,16.67
2018-01-23T02:03:44.153Z,14.57
2018-01-23T02:06:12.659Z,15.60
2018-01-23T02:08:41.093Z,15.23
2018-01-23T02:11:09.528Z,16.03
2018-01-23T02:13:38.019Z,16.10
2018-01-23T02:16:06.425Z,15.67
2018-01-23T02:18:34.941Z,15.37
2018-01-23T02:21:03.348Z,15.13
2018-01-23T02:23:31.760Z,14.77
2018-01-23T02:26:00.203Z,15.80
2018-01-23T02:28:28.660Z,16.23
2018-01-23T02:30:57.089Z,16.77
2018-01-23T02:33:25.541Z,17.17
2018-01-23T02:35:54.018Z,16.53
2018-01-23T02:38:22.525Z,16.10
2018-01-23T02:40:51.100Z,16.47
2018-01-23T02:43:19.504Z,15.57
2018-01-23T02:45:47.923Z,16.30
2018-01-23T02:48:16.365Z,16.17
2018-01-23T02:50:44.800Z,16.70
2018-01-23T02:53:13.254Z,16.17
2018-01-23T02:55:41.664Z,15.93
2018-01-23T02:58:10.153Z,16.97
2018-01-23T03:00:38.596Z,17.07
2018-01-23T03:03:07.129Z,15.90
2018-01-23T03:05:35.617Z,17.97
2018-01-23T03:08:04.157Z,15.87
2018-01-23T03:10:32.653Z,17.70
2018-01-23T03:13:01.050Z,16.33
2018-01-23T03:15:29.537Z,18.23
2018-01-23T03:17:57.955Z,17.00
2018-01-23T03:20:26.457Z,17.63
2018-01-23T03:22:54.909Z,17.93
2018-01-23T03:25:23.304Z,15.93
2018-01-23T03:27:51.812Z,16.37
2018-01-23T03:30:20.213Z,16.30
2018-01-23T03:32:48.657Z,15.73
2018-01-23T03:35:17.065Z,17.03
2018-01-23T03:37:45.500Z,15.40
2018-01-23T03:40:13.925Z,16.27
2018-01-23T03:42:42.361Z,17.37
2018-01-23T03:45:10.845Z,16.43
2018-01-23T03:47:39.343Z,17.57
2018-01-23T03:50:07.781Z,17.20
2018-01-23T03:52:36.212Z,16.63
2018-01-23T03:55:04.681Z,17.40
2018-01-23T03:57:33.133Z,17.63
2018-01-23T04:00:01.645Z,17.40
2018-01-23T04:02:30.200Z,16.50
2018-01-23T04:04:58.622Z,17.90
2018-01-23T04:07:27.023Z,17.83
2018-01-23T04:09:55.481Z,17.10
2018-01-23T04:12:23.885Z,17.27
2018-01-23T04:14:52.341Z,16.73
2018-01-23T04:17:20.843Z,17.93
2018-01-23T04:19:49.246Z,16.97
2018-01-23T04:22:17.718Z,16.80
2018-01-23T04:24:46.195Z,16.90
2018-01-23T04:27:14.636Z,18.77
2018-01-23T04:29:43.145Z,17.70
2018-01-23T04:32:11.602Z,18.17
2018-01-23T04:34:40.013Z,18.17
2018-01-23T04:37:08.475Z,18.00
2018-01-23T04:39:36.881Z,18.50
2018-01-23T04:42:05.316Z,19.00
2018-01-23T04:44:33.728Z,17.90
2018-01-23T04:47:02.173Z,18.30
2018-01-23T04:49:30.704Z,19.63
2018-01-23T04:51:59.112Z,17.63
2018-01-23T04:54:27.516Z,18.90
2018-01-23T04:56:56.033Z,18.77
2018-01-23T04:59:24.432Z,18.93
2018-01-23T05:01:52.881Z,18.60
2018-01-23T05:04:21.290Z,20.00
2018-01-23T05:06:49.702Z,18.67
2018-01-23T05:09:18.165Z,20.63
2018-01-23T05:11:46.564Z,19.67
2018-01-23T05:14:14.969Z,19.20
2018-01-23T05:16:43.428Z,19.37
2018-01-23T05:19:11.952Z,19.53
2018-01-23T05:21:40.389Z,19.80
2018-01-23T05:24:08.869Z,20.57
2018-01-23T05:26:37.307Z,19.93
2018-01-23T05:29:05.713Z,21.00
2018-01-23T05:31:34.205Z,21.63
2018-01-23T05:34:02.706Z,20.90
2018-01-23T05:36:31.216Z,19.53
2018-01-23T05:38:59.721Z,21.10
2018-01-23T05:41:28.178Z,21.90
2018-01-23T05:43:56.670Z,19.77
2018-01-23T05:46:25.126Z,19.03
2018-01-23T05:48:53.629Z,21.20
2018-01-23T05:51:22.129Z,20.57
2018-01-23T05:53:50.549Z,21.13
2018-01-23T05:56:18.992Z,20.70
2018-01-23T05:58:47.404Z,19.70
2018-01-23T06:01:15.893Z,20.03
2018-01-23T06:03:44.297Z,19.00
2018-01-23T06:06:12.736Z,18.00
2018-01-23T06:08:41.259Z,18.23
2018-01-23T06:11:09.765Z,18.00
2018-01-23T06:13:38.365Z,17.53
2018-01-23T06:16:06.842Z,18.93
2018-01-23T06:18:35.279Z,21.30
2018-01-23T06:21:03.711Z,18.50
2018-01-23T06:23:32.148Z,18.13
2018-01-23T06:26:00.579Z,18.33
2018-01-23T06:28:29.091Z,17.40
2018-01-23T06:30:57.996Z,16.57
2018-01-23T06:33:28.132Z,18.77
2018-01-23T06:35:56.556Z,20.77
2018-01-23T06:38:26.231Z,20.80
2018-01-23T06:40:55.024Z,19.20
2018-01-23T06:43:23.421Z,18.47
2018-01-23T06:45:51.824Z,19.53
2018-01-23T06:48:20.293Z,18.43
2018-01-23T06:50:48.706Z,18.50
2018-01-23T06:53:17.146Z,20.77
2018-01-23T06:55:45.593Z,20.40
2018-01-23T06:58:14.128Z,24.27
2018-01-23T07:00:42.578Z,25.07
2018-01-23T07:03:11.007Z,27.90
2018-01-23T07:05:39.532Z,24.80
2018-01-23T07:08:07.998Z,25.30
2018-01-23T07:10:36.450Z,24.70
2018-01-23T07:13:04.864Z,24.23
2018-01-23T07:15:33.332Z,24.50
2018-01-23T07:18:01.741Z,24.13
2018-01-23T07:20:30.176Z,22.47
2018-01-23T07:22:58.616Z,23.00
2018-01-23T07:25:27.060Z,25.40
2018-01-23T07:27:55.558Z,24.67
2018-01-23T07:30:24.004Z,27.87
2018-01-23T07:32:52.452Z,26.67
2018-01-23T07:35:20.933Z,25.33
2018-01-23T07:37:49.505Z,25.37
2018-01-23T07:40:18.023Z,24.77
2018-01-23T07:42:47.214Z,29.07
2018-01-23T07:45:15.676Z,26.67
2018-01-23T07:47:44.132Z,25.20
2018-01-23T07:50:12.643Z,25.27
2018-01-23T07:52:41.058Z,23.70
2018-01-23T07:55:09.571Z,25.30
2018-01-23T07:57:37.977Z,25.63
2018-01-23T08:00:06.440Z,24.40
2018-01-23T08:02:34.967Z,23.53
2018-01-23T08:05:03.501Z,24.10
2018-01-23T08:07:32.016Z,22.73
2018-01-23T08:10:00.441Z,20.40
2018-01-23T08:12:28.922Z,20.63
2018-01-23T08:14:57.335Z,20.70
2018-01-23T08:17:25.788Z,20.83
2018-01-23T08:19:54.261Z,20.10
2018-01-23T08:22:22.781Z,20.23
2018-01-23T08:24:51.257Z,19.40
2018-01-23T08:27:19.724Z,19.20
2018-01-23T08:29:48.326Z,19.10
2018-01-23T08:32:16.822Z,19.50
2018-01-23T08:34:45.335Z,15.83
2018-01-23T08:37:13.736Z,15.10
2018-01-23T08:39:42.161Z,17.90
2018-01-23T08:42:10.673Z,15.13
2018-01-23T08:44:39.964Z,17.13
2018-01-23T08:47:08.418Z,14.80
2018-01-23T08:49:36.862Z,15.97
2018-01-23T08:52:05.323Z,15.63
2018-01-23T08:54:33.791Z,14.57
2018-01-23T08:57:02.314Z,14.40
2018-01-23T08:59:30.854Z,14.87
2018-01-23T09:01:59.261Z,15.13
2018-01-23T09:04:27.741Z,16.43
2018-01-23T09:07:00.349Z,15.90
2018-01-23T09:09:28.816Z,14.83
2018-01-23T09:11:57.253Z,15.47
2018-01-23T09:14:25.665Z,16.97
2018-01-23T09:16:54.114Z,15.73
2018-01-23T09:19:22.525Z,16.67
2018-01-23T09:21:50.983Z,16.13
2018-01-23T09:24:19.459Z,15.60
2018-01-23T09:26:47.933Z,16.83
2018-01-23T09:29:16.313Z,15.80
2018-01-23T09:31:44.727Z,15.80
2018-01-23T09:34:13.174Z,16.00
2018-01-23T09:36:41.616Z,15.77
2018-01-23T09:39:10.200Z,14.63
2018-01-23T09:41:38.674Z,13.53
2018-01-23T09:44:07.127Z,13.63
2018-01-23T09:46:35.546Z,13.23
2018-01-23T09:49:04.007Z,15.23
2018-01-23T09:51:32.481Z,13.30
2018-01-23T09:54:00.936Z,15.03
2018-01-23T09:56:29.392Z,14.80
2018-01-23T09:58:57.811Z,12.13
2018-01-23T10:01:26.314Z,12.10
2018-01-23T10:03:54.789Z,12.20
2018-01-23T10:06:23.243Z,13.27
2018-01-23T10:08:52.235Z,12.70
2018-01-23T10:11:20.705Z,11.70
2018-01-23T10:13:49.173Z,12.50
2018-01-23T10:16:17.809Z,11.87
2018-01-23T10:18:46.324Z,10.83
2018-01-23T10:21:14.937Z,11.43
2018-01-23T10:23:43.479Z,12.57
2018-01-23T10:26:11.947Z,12.47
2018-01-23T10:28:40.517Z,14.83
2018-01-23T10:31:08.965Z,13.33
2018-01-23T10:33:37.454Z,15.13
2018-01-23T10:36:05.880Z,15.30
2018-01-23T10:38:34.320Z,14.83
2018-01-23T10:41:02.730Z,14.23
2018-01-23T10:43:31.182Z,14.47
2018-01-23T10:45:59.671Z,14.60
2018-01-23T10:48:28.147Z,14.77
2018-01-23T10:50:56.559Z,16.73
2018-01-23T10:53:24.970Z,15.43
2018-01-23T10:55:53.458Z,13.00
2018-01-23T10:58:21.969Z,15.23
2018-01-23T11:00:56.069Z,14.80
2018-01-23T11:03:24.593Z,14.37
2018-01-23T11:05:53.008Z,12.93
2018-01-23T11:08:21.532Z,12.67
2018-01-23T11:10:49.941Z,13.83
2018-01-23T11:13:18.398Z,13.33
2018-01-23T11:15:46.911Z,14.10
2018-01-23T11:18:15.331Z,13.63
2018-01-23T11:20:43.878Z,14.00
2018-01-23T11:23:12.871Z,14.57
2018-01-23T11:25:41.444Z,15.07
2018-01-23T11:28:09.857Z,15.37
2018-01-23T11:30:38.283Z,14.67
2018-01-23T11:33:06.800Z,14.47
2018-01-23T11:35:35.263Z,15.33
2018-01-23T11:38:03.742Z,13.93
2018-01-23T11:40:32.165Z,14.60
2018-01-23T11:43:00.613Z,13.87
2018-01-23T11:45:29.069Z,13.57
2018-01-23T11:47:57.564Z,15.00
2018-01-23T11:50:26.086Z,14.33
2018-01-23T11:52:54.644Z,14.33
2018-01-23T11:55:23.156Z,15.13
2018-01-23T11:57:51.625Z,15.73
2018-01-23T12:00:20.146Z,14.33
2018-01-23T12:02:48.607Z,16.30
2018-01-23T12:05:17.245Z,14.83
2018-01-23T12:07:45.970Z,14.70
2018-01-23T12:10:14.507Z,15.27
2018-01-23T12:12:43.051Z,14.20
2018-01-23T12:15:11.532Z,15.40
2018-01-23T12:17:40.075Z,15.33
2018-01-23T12:20:08.606Z,15.77
2018-01-23T12:22:37.259Z,15.23
2018-01-23T12:25:05.705Z,15.77
2018-01-23T12:27:34.172Z,15.87
2018-01-23T12:30:02.602Z,15.33
2018-01-23T12:32:31.019Z,14.70
2018-01-23T12:34:59.473Z,14.27
2018-01-23T12:37:27.941Z,15.87
2018-01-23T12:39:56.449Z,14.57
2018-01-23T12:42:24.856Z,16.00
2018-01-23T12:44:53.312Z,14.97
2018-01-23T12:47:21.913Z,14.53
2018-01-23T12:49:50.369Z,13.93
2018-01-23T12:52:18.880Z,13.80
2018-01-23T12:54:47.293Z,14.80
2018-01-23T12:57:15.807Z,14.87
2018-01-23T12:59:44.268Z,14.53
2018-01-23T13:02:12.694Z,15.50
2018-01-23T13:04:41.199Z,15.23
2018-01-23T13:07:09.629Z,15.60
2018-01-23T13:09:38.069Z,18.30
2018-01-23T13:12:06.483Z,28.03
2018-01-23T13:14:34.901Z,15.80
2018-01-23T13:17:03.320Z,15.17
2018-01-23T13:19:31.762Z,14.93
2018-01-23T13:22:00.235Z,15.47
2018-01-23T13:24:28.811Z,15.33
2018-01-23T13:26:57.252Z,15.33
2018-01-23T13:29:25.685Z,15.93
2018-01-23T13:31:54.125Z,22.97
2018-01-23T13:34:22.629Z,16.73
2018-01-23T13:36:51.099Z,16.40
2018-01-23T13:39:19.508Z,14.10
2018-01-23T13:41:48.020Z,14.27
2018-01-23T13:44:16.521Z,13.43
2018-01-23T13:46:44.993Z,12.83
2018-01-23T13:49:13.463Z,13.33
2018-01-23T13:51:41.943Z,14.60
2018-01-23T13:54:10.455Z,20.90
2018-01-23T13:56:38.952Z,18.90
2018-01-23T13:59:07.425Z,17.17
2018-01-23T14:01:35.898Z,18.87
2018-01-23T14:04:04.520Z,15.37
2018-01-23T14:06:33.006Z,13.33
2018-01-23T14:09:01.510Z,14.30
2018-01-23T14:11:30.096Z,13.83
2018-01-23T14:13:58.557Z,13.87
2018-01-23T14:16:27.035Z,14.17
2018-01-23T14:18:55.587Z,14.17
2018-01-23T14:21:23.992Z,14.30
2018-01-23T14:23:52.488Z,14.80
2018-01-23T14:26:21.006Z,15.37
2018-01-23T14:28:49.442Z,15.33
2018-01-23T14:31:17.987Z,15.53
2018-01-23T14:33:46.456Z,14.97
2018-01-23T14:36:15.027Z,15.30
2018-01-23T14:38:43.520Z,15.60
2018-01-23T14:41:11.924Z,14.80
2018-01-23T14:43:40.499Z,15.30
2018-01-23T14:46:08.959Z,15.40
2018-01-23T14:48:37.443Z,16.53
2018-01-23T14:51:05.937Z,15.17
2018-01-23T14:53:34.380Z,14.47
2018-01-23T14:56:02.859Z,14.13
2018-01-23T14:58:31.389Z,14.53
2018-01-23T15:00:59.878Z,14.83
2018-01-23T15:03:28.341Z,14.33
2018-01-23T15:05:56.759Z,14.63
2018-01-23T15:08:25.246Z,14.23
2018-01-23T15:10:53.790Z,14.63
2018-01-23T15:13:22.345Z,15.20
2018-01-23T15:15:50.752Z,14.47
2018-01-23T15:18:19.241Z,15.37
2018-01-23T15:20:47.753Z,16.00
2018-01-23T15:23:16.232Z,16.23
2018-01-23T15:25:44.641Z,16.67
2018-01-23T15:28:13.152Z,15.17
2018-01-23T15:30:41.594Z,16.20
2018-01-23T15:33:10.069Z,17.00
2018-01-23T15:35:38.580Z,16.33
2018-01-23T15:38:07.033Z,17.70
2018-01-23T15:40:35.524Z,18.27
2018-01-23T15:43:03.962Z,17.90
2018-01-23T15:45:32.437Z,20.90
2018-01-23T15:48:00.905Z,25.67
2018-01-23T15:50:29.362Z,34.40
2018-01-23T15:52:57.828Z,38.03
2018-01-23T15:55:26.301Z,46.27
2018-01-23T15:57:54.753Z,40.73
2018-01-23T16:00:23.188Z,24.13
2018-01-23T16:02:51.600Z,28.53
2018-01-23T16:05:20.726Z,30.67
2018-01-23T16:07:49.190Z,42.07
2018-01-23T16:10:17.687Z,18.57
2018-01-23T16:12:46.103Z,20.83
2018-01-23T16:15:14.560Z,19.83
2018-01-23T16:17:43.010Z,16.33
2018-01-23T16:20:11.506Z,15.10
2018-01-23T16:22:39.893Z,12.60
2018-01-23T16:25:08.362Z,12.93
2018-01-23T16:27:36.768Z,12.40
2018-01-23T16:30:05.211Z,13.07
2018-01-23T16:32:33.661Z,13.10
2018-01-23T16:35:02.131Z,12.13
2018-01-23T16:37:30.585Z,13.00
2018-01-23T16:39:59.087Z,13.30
2018-01-23T16:42:27.553Z,21.87
2018-01-23T16:44:56.063Z,30.57
2018-01-23T16:47:24.577Z,16.27
2018-01-23T16:49:53.041Z,12.23
2018-01-23T16:52:21.473Z,11.47
2018-01-23T16:54:49.936Z,20.03
2018-01-23T16:57:18.348Z,24.80
2018-01-23T16:59:46.859Z,29.10
2018-01-23T17:02:15.337Z,15.33
2018-01-23T17:04:43.777Z,12.57
2018-01-23T17:07:12.277Z,12.13
2018-01-23T17:09:40.695Z,21.07
2018-01-23T17:12:09.151Z,13.90
2018-01-23T17:14:37.552Z,12.07
2018-01-23T17:17:05.992Z,11.93
2018-01-23T17:19:34.439Z,12.20
2018-01-23T17:22:02.928Z,12.00
2018-01-23T17:24:31.389Z,11.57
2018-01-23T17:26:59.911Z,11.23
2018-01-23T17:29:28.335Z,11.37
2018-01-23T17:31:56.757Z,11.80
2018-01-23T17:34:25.214Z,10.97
2018-01-23T17:36:53.633Z,11.40
2018-01-23T17:39:22.131Z,10.20
2018-01-23T17:41:50.546Z,9.97
2018-01-23T17:44:19.049Z,10.40
2018-01-23T17:46:47.504Z,9.27
2018-01-23T17:49:15.936Z,9.60
2018-01-23T17:51:44.388Z,9.70
2018-01-23T17:54:12.818Z,9.23
2018-01-23T17:56:41.318Z,8.97
2018-01-23T17:59:09.812Z,9.13
2018-01-23T18:01:38.311Z,9.37
2018-01-23T18:04:06.838Z,9.50
2018-01-23T18:06:35.264Z,9.53
2018-01-23T18:09:03.729Z,9.37
2018-01-23T18:11:32.395Z,10.53
2018-01-23T18:16:34.260Z,11.57
2018-01-23T18:19:02.692Z,11.13
2018-01-23T18:21:31.185Z,10.90
2018-01-23T18:24:00.818Z,10.13
2018-01-23T18:26:29.326Z,11.10
2018-01-23T18:28:57.821Z,10.80
2018-01-23T18:31:26.332Z,10.50
2018-01-23T18:33:55.009Z,10.87
2018-01-23T18:36:23.545Z,10.33
2018-01-23T18:38:52.102Z,10.27
2018-01-23T18:41:22.195Z,10.03
2018-01-23T18:43:50.612Z,10.33
2018-01-23T18:46:19.675Z,9.37
2018-01-23T18:48:48.137Z,9.33
2018-01-23T18:51:17.653Z,8.70
2018-01-23T18:53:46.057Z,9.17
2018-01-23T18:56:14.599Z,8.70
2018-01-23T18:58:43.118Z,8.50
2018-01-23T19:01:12.149Z,8.30
2018-01-23T19:03:40.600Z,8.37
2018-01-23T19:06:09.055Z,9.27
2018-01-23T19:08:37.452Z,8.80
2018-01-23T19:11:05.893Z,8.13
2018-01-23T19:13:34.334Z,8.27
2018-01-23T19:16:02.725Z,8.60
2018-01-23T19:18:31.175Z,8.07
2018-01-23T19:20:59.572Z,8.37
2018-01-23T19:23:28.053Z,7.90
2018-01-23T19:25:56.449Z,7.67
2018-01-23T19:28:25.522Z,7.90
2018-01-23T19:30:53.948Z,8.50
2018-01-23T19:33:22.372Z,8.43
2018-01-23T19:35:50.820Z,7.80
2018-01-23T19:38:19.261Z,8.27
2018-01-23T19:40:47.731Z,8.37
2018-01-23T19:43:16.194Z,9.00
2018-01-23T19:45:44.603Z,8.53
2018-01-23T19:48:13.057Z,8.17
2018-01-23T19:50:41.474Z,9.50
2018-01-23T19:53:09.887Z,10.17
2018-01-23T19:55:38.329Z,10.43
2018-01-23T19:58:06.830Z,10.17
2018-01-23T20:00:35.274Z,10.03
2018-01-23T20:03:03.668Z,9.90
2018-01-23T20:05:32.241Z,10.10
2018-01-23T20:08:00.676Z,9.77
2018-01-23T20:10:29.076Z,9.83
2018-01-23T20:12:57.502Z,9.50
2018-01-23T20:15:25.904Z,9.03
2018-01-23T20:17:54.363Z,8.90
2018-01-23T20:20:22.819Z,8.50
2018-01-23T20:22:51.247Z,8.93
2018-01-23T20:25:19.670Z,7.87
2018-01-23T20:27:48.157Z,8.43
2018-01-23T20:30:16.561Z,8.17
2018-01-23T20:32:45.057Z,8.70
2018-01-23T20:35:13.445Z,8.37
2018-01-23T20:37:41.837Z,7.83
2018-01-23T20:40:10.256Z,8.03
2018-01-23T20:42:38.669Z,7.87
2018-01-23T20:45:07.161Z,8.63
2018-01-23T20:47:35.601Z,9.43
2018-01-23T20:50:04.030Z,8.63
2018-01-23T20:52:32.472Z,10.23
2018-01-23T20:55:00.898Z,9.43
2018-01-23T20:57:29.345Z,9.17
2018-01-23T20:59:57.757Z,10.37
2018-01-23T21:02:26.157Z,9.87
2018-01-23T21:04:54.563Z,10.23
2018-01-23T21:07:23.021Z,9.97
2018-01-23T21:09:51.453Z,9.63
2018-01-23T21:12:19.929Z,10.17
2018-01-23T21:14:48.360Z,9.97
2018-01-23T21:17:16.788Z,8.53
2018-01-23T21:19:45.176Z,7.53
2018-01-23T21:22:13.635Z,7.97
2018-01-23T21:24:42.096Z,7.57
2018-01-23T21:27:10.504Z,8.13
2018-01-23T21:29:38.896Z,8.10
2018-01-23T21:32:07.349Z,8.57
2018-01-23T21:34:35.775Z,8.57
2018-01-23T21:37:04.184Z,8.70
2018-01-23T21:39:32.677Z,8.17
2018-01-23T21:42:01.103Z,9.23
2018-01-23T21:44:29.565Z,9.53
2018-01-23T21:46:57.998Z,9.50
2018-01-23T21:49:26.457Z,10.13
2018-01-23T21:51:54.919Z,10.13
2018-01-23T21:54:23.321Z,11.40
2018-01-23T21:56:51.830Z,13.30
2018-01-23T21:59:20.229Z,13.03
2018-01-23T22:01:48.689Z,12.50
2018-01-23T22:04:17.112Z,11.73
2018-01-23T22:06:45.569Z,10.90
2018-01-23T22:09:14.033Z,11.67
2018-01-23T22:11:42.497Z,13.07
2018-01-23T22:14:10.932Z,13.37
2018-01-23T22:16:39.341Z,13.70
2018-01-23T22:19:07.794Z,13.70
2018-01-23T22:21:36.262Z,12.50
2018-01-23T22:24:04.721Z,11.60
2018-01-23T22:26:33.105Z,11.10
2018-01-23T22:29:01.501Z,10.90
2018-01-23T22:31:29.938Z,10.40
2018-01-23T22:33:58.352Z,9.83
2018-01-23T22:36:26.784Z,9.83
2018-01-23T22:38:55.247Z,8.90
2018-01-23T22:41:23.731Z,8.80
2018-01-23T22:43:52.233Z,9.20
2018-01-23T22:46:20.665Z,7.70
2018-01-23T22:48:49.088Z,7.37
2018-01-23T22:51:17.524Z,8.03
2018-01-23T22:53:45.916Z,8.17
2018-01-23T22:56:14.390Z,9.17
2018-01-23T22:58:42.818Z,9.63
2018-01-23T23:01:11.269Z,9.80
2018-01-23T23:03:39.770Z,9.80
2018-01-23T23:06:08.239Z,9.07
2018-01-23T23:08:36.649Z,10.07
2018-01-23T23:11:05.085Z,9.97
2018-01-23T23:13:33.531Z,9.50
2018-01-23T23:16:01.994Z,10.43
2018-01-23T23:18:30.458Z,10.20
2018-01-23T23:20:58.860Z,10.27
2018-01-23T23:23:27.284Z,11.20
2018-01-23T23:25:55.676Z,10.63
2018-01-23T23:28:24.169Z,11.53
2018-01-23T23:30:52.582Z,10.80
2018-01-23T23:33:21.121Z,12.07
2018-01-23T23:35:49.553Z,10.93
2018-01-23T23:38:18.003Z,11.23
2018-01-23T23:40:46.417Z,10.83
2018-01-23T23:43:14.816Z,10.77
2018-01-23T23:45:43.271Z,10.77
2018-01-23T23:48:11.748Z,11.60
2018-01-23T23:50:40.157Z,11.80
2018-01-23T23:53:08.622Z,11.83
2018-01-23T23:55:37.129Z,13.10
2018-01-23T23:58:05.529Z,13.40
